Time;durP1;ratioP1;P1;durP2;ratioP2;P2;SDS_P1;SDS_P2;PMS_P1;PMS_P2;Temp;Humidity;BMP_temperature;BMP_pressure;BME280_temperature;BME280_humidity;BME280_pressure;Samples;Min_cycle;Max_cycle;Signal;HPM_P1;HPM_P2
2023/03/16 00:01:43;;;;;;;4.15;3.75;;;1.50;99.90;;;;;;5038185;28;20209;-78
2023/03/16 00:04:10;;;;;;;5.63;3.70;;;1.50;99.90;;;;;;5038361;28;20581;-80
2023/03/16 00:06:37;;;;;;;7.00;3.85;;;1.50;99.90;;;;;;5039471;28;20220;-79
2023/03/16 00:09:04;;;;;;;8.45;4.47;;;1.60;99.90;;;;;;5039469;28;20204;-79
2023/03/16 00:11:31;;;;;;;12.98;6.93;;;1.50;1.00;;;;;;5039570;28;20211;-79
2023/03/16 00:13:58;;;;;;;8.70;5.38;;;1.50;99.90;;;;;;5039299;28;20637;-79
2023/03/16 00:16:25;;;;;;;7.50;4.85;;;1.50;1.00;;;;;;5039191;28;20286;-79
2023/03/16 00:18:53;;;;;;;7.85;4.45;;;1.50;75.80;;;;;;5039513;28;20581;-79
2023/03/16 00:21:20;;;;;;;10.95;4.65;;;1.40;1.00;;;;;;5043186;28;20208;-78
2023/03/16 00:23:47;;;;;;;6.00;4.75;;;1.40;99.90;;;;;;5038014;28;20236;-77
2023/03/16 00:26:13;;;;;;;9.70;4.68;;;1.00;99.90;;;;;;5037931;28;20574;-78
2023/03/16 00:28:41;;;;;;;8.75;5.90;;;1.40;99.90;;;;;;5047181;28;20204;-78
2023/03/16 00:31:13;;;;;;;7.13;4.32;;;1.40;99.90;;;;;;5060222;28;20191;-79
2023/03/16 00:33:45;;;;;;;8.77;4.25;;;1.40;99.90;;;;;;5047226;28;20282;-78
2023/03/16 00:36:13;;;;;;;12.77;4.35;;;1.40;99.90;;;;;;5042775;28;20192;-78
2023/03/16 00:38:43;;;;;;;7.53;3.97;;;1.20;56.90;;;;;;5051467;28;20184;-76
2023/03/16 00:41:13;;;;;;;7.25;3.60;;;1.20;99.90;;;;;;5061215;28;20252;-76
2023/03/16 00:43:41;;;;;;;6.05;3.92;;;1.20;99.90;;;;;;5060890;28;20227;-77
2023/03/16 00:46:08;;;;;;;9.18;5.18;;;1.40;99.90;;;;;;5043379;28;20694;-79
2023/03/16 00:48:37;;;;;;;8.68;4.47;;;1.20;99.90;;;;;;5036726;28;20217;-79
2023/03/16 00:51:06;;;;;;;4.78;3.55;;;1.20;1.00;;;;;;5036935;28;20207;-79
2023/03/16 00:53:35;;;;;;;6.90;3.67;;;0.90;99.90;;;;;;5037296;28;20577;-78
2023/03/16 00:56:04;;;;;;;7.32;4.28;;;1.10;99.90;;;;;;5039746;28;20203;-78
2023/03/16 00:58:34;;;;;;;6.63;4.22;;;1.10;99.90;;;;;;5080145;22;20314;-84
2023/03/16 01:01:01;;;;;;;10.77;4.10;;;1.30;99.90;;;;;;5058968;28;20199;-84
2023/03/16 01:03:28;;;;;;;6.50;4.40;;;1.00;99.90;;;;;;5059324;28;20219;-84
2023/03/16 01:05:58;;;;;;;10.20;4.35;;;1.00;99.90;;;;;;5059742;28;20291;-84
2023/03/16 01:08:26;;;;;;;7.50;4.07;;;1.10;99.90;;;;;;5080048;28;20326;-83
2023/03/16 01:10:54;;;;;;;9.05;4.25;;;1.10;1.00;;;;;;5073618;28;20700;-83
2023/03/16 01:13:22;;;;;;;11.15;7.28;;;1.10;1.00;;;;;;5060373;28;20209;-83
2023/03/16 01:15:50;;;;;;;11.90;5.53;;;0.80;99.90;;;;;;5058567;28;20207;-83
2023/03/16 01:18:17;;;;;;;8.43;5.50;;;1.10;99.90;;;;;;5059779;28;20600;-84
2023/03/16 01:20:49;;;;;;;9.77;5.68;;;1.10;99.90;;;;;;5059153;28;20207;-83
2023/03/16 01:23:16;;;;;;;11.27;4.63;;;1.10;95.00;;;;;;5058535;28;20280;-83
2023/03/16 01:25:46;;;;;;;6.15;4.10;;;1.20;1.00;;;;;;5059733;28;20645;-83
2023/03/16 01:28:14;;;;;;;6.60;5.30;;;1.20;1.00;;;;;;5057743;28;20226;-85
2023/03/16 01:30:43;;;;;;;15.20;8.50;;;1.00;1.00;;;;;;5061865;28;20347;-84
2023/03/16 01:33:10;;;;;;;11.68;5.40;;;0.90;1.00;;;;;;5061166;28;20203;-84
2023/03/16 01:35:37;;;;;;;8.27;5.05;;;0.90;1.00;;;;;;5073603;28;20266;-84
2023/03/16 01:38:04;;;;;;;9.10;4.32;;;0.80;99.90;;;;;;5074666;28;20697;-84
2023/03/16 01:40:31;;;;;;;10.00;5.28;;;0.80;99.90;;;;;;5072992;28;20692;-84
2023/03/16 01:43:04;;;;;;;6.05;3.83;;;0.90;99.90;;;;;;5071358;28;20243;-85
2023/03/16 01:46:13;;;;;;;5.72;4.07;;;0.90;99.90;;;;;;5062475;28;20257;-84
2023/03/16 01:48:45;;;;;;;3.58;3.22;;;0.80;43.80;;;;;;5059249;28;20223;-84
2023/03/16 01:51:19;;;;;;;7.75;3.35;;;0.80;99.90;;;;;;5071131;28;20261;-83
2023/03/16 01:53:48;;;;;;;5.55;3.88;;;0.80;9.90;;;;;;5072064;28;20214;-85
2023/03/16 01:56:22;;;;;;;6.45;4.20;;;0.80;99.90;;;;;;5066218;28;20207;-85
2023/03/16 01:58:50;;;;;;;7.22;4.50;;;0.70;1.00;;;;;;5066580;28;20645;-85
2023/03/16 02:01:17;;;;;;;4.97;3.13;;;0.70;99.90;;;;;;5064666;28;20203;-83
2023/03/16 02:03:46;;;;;;;5.15;3.92;;;0.70;85.20;;;;;;5061303;28;20288;-84
2023/03/16 02:06:18;;;;;;;6.32;3.10;;;0.60;42.00;;;;;;5061162;28;20210;-83
2023/03/16 02:08:47;;;;;;;5.78;2.90;;;0.60;99.90;;;;;;5064396;28;20242;-83
2023/03/16 02:11:16;;;;;;;4.65;3.30;;;0.60;99.90;;;;;;5076821;28;20259;-84
2023/03/16 02:13:44;;;;;;;6.57;3.45;;;0.60;99.90;;;;;;5067409;28;20230;-85
2023/03/16 02:16:13;;;;;;;7.75;3.53;;;0.60;99.90;;;;;;5064692;28;20645;-85
2023/03/16 02:18:40;;;;;;;8.20;3.10;;;0.60;99.90;;;;;;5078162;28;20223;-85
2023/03/16 02:21:18;;;;;;;6.78;3.35;;;0.60;1.00;;;;;;5078114;28;20227;-82
2023/03/16 02:23:45;;;;;;;5.68;3.30;;;0.60;99.90;;;;;;5077238;28;20212;-82
2023/03/16 02:26:18;;;;;;;6.05;2.95;;;0.60;93.10;;;;;;5077478;28;20204;-84
2023/03/16 02:29:02;;;;;;;6.50;3.10;;;0.50;92.10;;;;;;5113463;28;20521;-82
2023/03/16 02:31:32;;;;;;;5.95;3.10;;;0.60;10.80;;;;;;5113053;28;20253;-83
2023/03/16 02:34:00;;;;;;;4.72;2.75;;;0.50;1.00;;;;;;5112555;28;20204;-83
2023/03/16 02:36:28;;;;;;;9.23;3.70;;;0.50;1.00;;;;;;5111996;28;20229;-82
2023/03/16 02:38:55;;;;;;;11.85;3.63;;;0.60;5.50;;;;;;5112575;28;20205;-83
2023/03/16 02:41:22;;;;;;;7.22;3.75;;;0.50;1.00;;;;;;5091110;22;20322;-78
2023/03/16 02:43:53;;;;;;;4.93;3.20;;;0.50;26.50;;;;;;5072570;28;20301;-79
2023/03/16 02:46:23;;;;;;;7.10;4.38;;;0.50;75.00;;;;;;5071907;28;20560;-78
2023/03/16 02:48:57;;;;;;;6.68;3.28;;;0.50;99.90;;;;;;5072001;28;20260;-78
2023/03/16 02:51:24;;;;;;;9.80;3.90;;;0.40;99.90;;;;;;5072059;28;20234;-78
2023/03/16 02:53:51;;;;;;;5.15;3.75;;;0.40;32.30;;;;;;5072768;28;20202;-78
2023/03/16 02:56:18;;;;;;;5.65;3.10;;;0.30;3.40;;;;;;5071385;28;20209;-78
2023/03/16 02:58:45;;;;;;;5.85;4.00;;;0.30;99.90;;;;;;5070655;28;20268;-78
2023/03/16 03:01:11;;;;;;;7.93;3.80;;;0.30;99.90;;;;;;5071518;28;20312;-78
2023/03/16 03:03:38;;;;;;;7.82;4.13;;;0.30;99.90;;;;;;5070700;28;20293;-78
2023/03/16 03:06:07;;;;;;;4.22;3.47;;;0.30;99.90;;;;;;5070220;28;20289;-79
2023/03/16 03:08:33;;;;;;;5.65;3.00;;;0.30;99.90;;;;;;5069670;28;20213;-77
2023/03/16 03:11:00;;;;;;;6.38;3.67;;;0.30;99.90;;;;;;5069246;28;20219;-78
2023/03/16 03:13:27;;;;;;;8.82;3.72;;;0.30;99.90;;;;;;5070102;28;20187;-78
2023/03/16 03:15:54;;;;;;;6.85;4.15;;;0.20;99.90;;;;;;5069916;28;20203;-77
2023/03/16 03:18:21;;;;;;;3.97;3.47;;;0.20;99.90;;;;;;5069603;28;20222;-77
2023/03/16 03:20:47;;;;;;;6.32;3.10;;;0.20;99.90;;;;;;5069479;28;20709;-78
2023/03/16 03:23:16;;;;;;;5.60;3.80;;;0.20;1.00;;;;;;5070288;28;20596;-77
2023/03/16 03:25:42;;;;;;;5.72;3.35;;;0.20;15.20;;;;;;5070282;28;20203;-80
2023/03/16 03:28:10;;;;;;;8.43;3.72;;;0.20;99.90;;;;;;5073312;28;20195;-78
2023/03/16 03:30:37;;;;;;;7.97;2.70;;;0.20;1.00;;;;;;5072818;28;20717;-79
2023/03/16 03:33:04;;;;;;;5.57;3.58;;;0.30;29.70;;;;;;5072790;28;20217;-77
2023/03/16 03:35:30;;;;;;;3.72;3.35;;;0.30;1.00;;;;;;5072197;28;20206;-77
2023/03/16 03:37:57;;;;;;;5.45;3.15;;;0.20;1.00;;;;;;5072114;28;20225;-78
2023/03/16 03:40:25;;;;;;;5.00;3.15;;;0.20;1.00;;;;;;5072925;28;20302;-77
2023/03/16 03:42:52;;;;;;;7.78;3.70;;;0.20;1.00;;;;;;5075337;28;20214;-78
2023/03/16 03:45:19;;;;;;;6.45;3.25;;;0.20;1.00;;;;;;5070670;28;20207;-78
2023/03/16 03:47:46;;;;;;;8.45;2.78;;;0.20;1.00;;;;;;5067566;28;20205;-81
2023/03/16 03:50:14;;;;;;;5.32;2.80;;;0.30;1.00;;;;;;5059472;28;20223;-78
2023/03/16 03:52:41;;;;;;;5.55;3.15;;;0.20;99.90;;;;;;5056445;28;20211;-79
2023/03/16 03:55:09;;;;;;;6.65;3.53;;;0.20;1.00;;;;;;5056648;28;20207;-78
2023/03/16 03:57:37;;;;;;;6.72;3.20;;;0.20;99.90;;;;;;5056691;28;20219;-78
2023/03/16 04:00:08;;;;;;;9.57;3.15;;;0.20;1.00;;;;;;5056533;28;20223;-78
2023/03/16 04:02:35;;;;;;;6.75;2.95;;;0.30;1.00;;;;;;5056337;28;20194;-78
2023/03/16 04:05:02;;;;;;;5.70;3.10;;;0.30;1.00;;;;;;5056195;28;20275;-78
2023/03/16 04:07:29;;;;;;;4.28;3.88;;;0.20;99.90;;;;;;5055938;28;20705;-78
2023/03/16 04:09:56;;;;;;;9.15;3.22;;;0.20;99.90;;;;;;5056310;28;20233;-78
2023/03/16 04:12:23;;;;;;;3.70;2.67;;;0.20;99.90;;;;;;5056633;28;20199;-77
2023/03/16 04:14:51;;;;;;;6.85;3.80;;;0.20;1.00;;;;;;5056401;28;20210;-78
2023/03/16 04:17:18;;;;;;;3.80;2.90;;;0.20;1.00;;;;;;5056317;28;20230;-78
2023/03/16 04:19:45;;;;;;;4.82;3.80;;;0.10;99.90;;;;;;5056316;28;20253;-77
2023/03/16 04:22:12;;;;;;;7.43;3.85;;;0.10;1.00;;;;;;5055428;28;20209;-76
2023/03/16 04:24:39;;;;;;;5.85;2.83;;;0.20;1.00;;;;;;5055122;28;20301;-77
2023/03/16 04:27:06;;;;;;;4.13;2.83;;;0.20;99.90;;;;;;5055907;28;20207;-76
2023/03/16 04:29:33;;;;;;;5.75;3.15;;;0.30;1.00;;;;;;5055324;28;20305;-78
2023/03/16 04:32:01;;;;;;;3.40;3.10;;;0.10;1.00;;;;;;5055318;28;20214;-78
2023/03/16 04:34:27;;;;;;;6.47;3.60;;;0.20;1.00;;;;;;5055915;28;20203;-79
2023/03/16 04:36:54;;;;;;;4.25;3.20;;;0.20;99.90;;;;;;5055307;28;20213;-78
2023/03/16 04:39:21;;;;;;;4.40;3.42;;;0.20;1.00;;;;;;5055768;28;20226;-78
2023/03/16 04:41:49;;;;;;;5.93;3.17;;;0.30;99.90;;;;;;5055562;28;20218;-78
2023/03/16 04:44:16;;;;;;;5.93;4.00;;;0.20;48.00;;;;;;5055260;28;20703;-78
2023/03/16 04:46:43;;;;;;;12.32;4.22;;;0.20;44.60;;;;;;5055378;28;20288;-78
2023/03/16 04:49:11;;;;;;;6.88;3.40;;;0.10;99.90;;;;;;5055338;28;20201;-77
2023/03/16 04:51:39;;;;;;;8.15;3.70;;;0.20;99.90;;;;;;5054605;28;20219;-77
2023/03/16 04:54:06;;;;;;;7.07;4.50;;;0.10;99.90;;;;;;5056610;28;20248;-79
2023/03/16 04:56:33;;;;;;;5.65;3.25;;;0.10;99.90;;;;;;5055310;28;20205;-77
2023/03/16 04:59:00;;;;;;;7.22;4.10;;;0.10;99.90;;;;;;5056244;28;20219;-78
2023/03/16 05:01:27;;;;;;;10.10;3.90;;;0.00;99.90;;;;;;5055865;28;20318;-78
2023/03/16 05:03:54;;;;;;;5.03;2.85;;;0.00;99.90;;;;;;5054748;28;20199;-78
2023/03/16 05:06:22;;;;;;;7.70;3.65;;;0.00;1.00;;;;;;5056536;28;20216;-78
2023/03/16 05:08:49;;;;;;;8.15;4.53;;;-0.30;1.00;;;;;;5056147;28;20439;-79
2023/03/16 05:11:15;;;;;;;12.30;4.60;;;0.00;1.00;;;;;;5056252;28;20230;-78
2023/03/16 05:13:42;;;;;;;5.32;3.25;;;0.00;1.00;;;;;;5055775;28;20203;-78
2023/03/16 05:16:09;;;;;;;7.70;3.45;;;0.00;99.90;;;;;;5056627;28;20203;-78
2023/03/16 05:18:36;;;;;;;6.35;3.22;;;0.00;1.00;;;;;;5062541;28;20222;-78
2023/03/16 05:21:03;;;;;;;6.97;3.70;;;-0.20;30.90;;;;;;5071080;28;20432;-78
2023/03/16 05:23:31;;;;;;;8.10;3.63;;;0.10;99.90;;;;;;5072615;28;20290;-78
2023/03/16 05:25:59;;;;;;;8.20;3.67;;;0.10;99.90;;;;;;5057665;28;20210;-78
2023/03/16 05:28:26;;;;;;;5.35;3.80;;;0.10;99.90;;;;;;5060518;28;20293;-78
2023/03/16 05:30:53;;;;;;;7.68;4.28;;;0.10;99.90;;;;;;5058343;28;20219;-78
2023/03/16 05:33:20;;;;;;;8.35;3.05;;;0.10;99.90;;;;;;5057907;28;20278;-78
2023/03/16 05:35:47;;;;;;;7.78;3.10;;;0.10;99.90;;;;;;5058432;28;20261;-78
2023/03/16 05:38:14;;;;;;;4.43;3.45;;;0.10;1.00;;;;;;5054704;28;20243;-78
2023/03/16 05:40:42;;;;;;;8.98;3.90;;;0.20;99.90;;;;;;5055597;28;20239;-78
2023/03/16 05:43:09;;;;;;;5.97;3.13;;;0.20;51.50;;;;;;5055273;28;20298;-78
2023/03/16 05:45:36;;;;;;;4.78;3.45;;;0.20;1.00;;;;;;5056593;28;20212;-79
2023/03/16 05:48:04;;;;;;;13.80;4.90;;;0.30;99.90;;;;;;5055747;28;20195;-78
2023/03/16 05:50:31;;;;;;;13.15;3.95;;;0.20;1.00;;;;;;5059968;28;20281;-79
2023/03/16 05:52:58;;;;;;;5.90;3.53;;;0.20;1.00;;;;;;5058532;28;20207;-80
2023/03/16 05:55:25;;;;;;;6.88;3.47;;;0.30;99.90;;;;;;5057659;28;20673;-79
2023/03/16 05:57:53;;;;;;;10.07;4.43;;;0.60;99.90;;;;;;5056450;28;20566;-79
2023/03/16 06:00:21;;;;;;;3.10;2.80;;;0.40;99.90;;;;;;5055409;28;20232;-78
2023/03/16 06:02:51;;;;;;;7.97;3.58;;;0.50;99.90;;;;;;5054692;28;20581;-78
2023/03/16 06:05:20;;;;;;;7.95;3.63;;;0.50;1.00;;;;;;5054475;28;20554;-79
2023/03/16 06:07:48;;;;;;;6.82;4.32;;;1.00;1.00;;;;;;5055336;28;20482;-80
2023/03/16 06:10:16;;;;;;;13.07;3.95;;;0.60;1.00;;;;;;5055497;28;20247;-79
2023/03/16 06:12:43;;;;;;;20.60;11.38;;;0.60;1.00;;;;;;5055672;28;20204;-78
2023/03/16 06:15:12;;;;;;;5.03;3.88;;;0.70;99.90;;;;;;5053851;28;20230;-79
2023/03/16 06:17:40;;;;;;;6.85;3.85;;;0.70;99.90;;;;;;5053207;28;20690;-78
2023/03/16 06:20:10;;;;;;;9.20;3.67;;;0.80;99.90;;;;;;5054347;28;20223;-79
2023/03/16 06:22:37;;;;;;;6.68;2.85;;;0.80;99.90;;;;;;5055797;28;20260;-79
2023/03/16 06:25:05;;;;;;;6.90;3.30;;;0.80;1.00;;;;;;5055964;28;20226;-78
2023/03/16 06:27:32;;;;;;;8.40;5.60;;;0.80;1.00;;;;;;5056460;28;20206;-78
2023/03/16 06:29:59;;;;;;;7.25;4.72;;;0.80;99.90;;;;;;5056783;28;20226;-80
2023/03/16 06:32:27;;;;;;;10.15;3.67;;;0.80;1.00;;;;;;5057077;28;20216;-80
2023/03/16 06:34:54;;;;;;;5.07;3.53;;;0.90;1.00;;;;;;5056350;28;20210;-78
2023/03/16 06:37:20;;;;;;;8.43;4.82;;;0.90;99.90;;;;;;5054654;28;20209;-79
2023/03/16 06:39:47;;;;;;;8.60;3.63;;;1.00;1.00;;;;;;5053813;28;20231;-80
2023/03/16 06:42:14;;;;;;;7.40;4.13;;;1.30;1.00;;;;;;5057924;28;20188;-78
2023/03/16 06:44:41;;;;;;;4.55;3.25;;;1.10;1.00;;;;;;5054264;28;20206;-79
2023/03/16 06:47:09;;;;;;;6.53;4.05;;;1.10;99.90;;;;;;5054480;28;20264;-80
2023/03/16 06:49:37;;;;;;;5.00;4.10;;;1.30;1.00;;;;;;5053617;28;20223;-78
2023/03/16 06:52:04;;;;;;;8.23;3.33;;;1.20;99.90;;;;;;5054171;28;20266;-79
2023/03/16 06:54:34;;;;;;;8.55;3.17;;;1.30;1.00;;;;;;5054894;28;20206;-79
2023/03/16 06:57:00;;;;;;;3.10;2.60;;;1.30;99.90;;;;;;5062307;28;20269;-78
2023/03/16 06:59:27;;;;;;;6.43;4.38;;;1.60;1.00;;;;;;5071656;28;20223;-79
2023/03/16 07:01:54;;;;;;;5.93;4.05;;;1.40;99.90;;;;;;5056965;28;20695;-80
2023/03/16 07:04:21;;;;;;;3.53;3.22;;;1.50;99.90;;;;;;5056962;28;20214;-79
2023/03/16 07:06:50;;;;;;;8.70;4.55;;;1.60;99.90;;;;;;5056665;28;20204;-79
2023/03/16 07:09:17;;;;;;;9.77;4.18;;;1.90;99.90;;;;;;5059867;28;20271;-79
2023/03/16 07:11:44;;;;;;;11.18;3.58;;;1.70;99.90;;;;;;5060392;28;20618;-79
2023/03/16 07:14:11;;;;;;;15.25;4.85;;;1.80;99.90;;;;;;5056150;28;20614;-79
2023/03/16 07:16:38;;;;;;;4.07;3.63;;;1.90;99.90;;;;;;5057087;28;20199;-78
2023/03/16 07:19:05;;;;;;;5.78;3.88;;;2.20;99.90;;;;;;5056305;28;20226;-78
2023/03/16 07:21:37;;;;;;;9.05;4.95;;;2.00;99.90;;;;;;5056589;28;20233;-78
2023/03/16 07:24:07;;;;;;;5.95;4.72;;;2.00;70.30;;;;;;5059126;28;20654;-79
2023/03/16 07:26:33;;;;;;;14.93;3.80;;;2.10;34.20;;;;;;5059659;28;20213;-79
2023/03/16 07:29:00;;;;;;;8.95;7.72;;;2.10;1.00;;;;;;5057880;28;20199;-78
2023/03/16 07:31:27;;;;;;;33.40;13.77;;;2.20;1.50;;;;;;5059125;28;20314;-78
2023/03/16 07:33:54;;;;;;;17.63;9.18;;;2.30;30.00;;;;;;5058801;28;20579;-79
2023/03/16 07:36:21;;;;;;;8.85;5.32;;;2.40;13.80;;;;;;5058291;28;20203;-79
2023/03/16 07:38:48;;;;;;;12.65;3.90;;;2.60;25.00;;;;;;5059181;28;20226;-78
2023/03/16 07:41:16;;;;;;;13.02;4.50;;;2.60;99.90;;;;;;5059241;28;20238;-80
2023/03/16 07:43:43;;;;;;;10.48;5.65;;;2.70;1.00;;;;;;5059070;28;20290;-79
2023/03/16 07:46:12;;;;;;;6.03;3.33;;;2.80;1.00;;;;;;5058328;28;20250;-79
2023/03/16 07:48:39;;;;;;;7.10;4.90;;;2.90;1.00;;;;;;5056561;28;20249;-80
2023/03/16 07:51:06;;;;;;;8.00;3.40;;;3.00;1.00;;;;;;5060130;28;20231;-82
2023/03/16 07:53:33;;;;;;;7.75;3.70;;;3.10;1.00;;;;;;5058927;28;20294;-79
2023/03/16 07:56:00;;;;;;;9.07;3.33;;;3.20;1.00;;;;;;5059938;28;20203;-79
2023/03/16 07:58:28;;;;;;;5.47;3.35;;;3.30;1.00;;;;;;5060397;28;20682;-81
2023/03/16 08:00:57;;;;;;;5.95;3.00;;;3.30;1.00;;;;;;5060017;28;20223;-81
2023/03/16 08:03:24;;;;;;;9.40;3.65;;;3.50;1.00;;;;;;5059600;28;20293;-78
2023/03/16 08:05:51;;;;;;;6.55;3.47;;;3.60;1.00;;;;;;5059427;28;20206;-78
2023/03/16 08:08:18;;;;;;;9.13;2.83;;;3.70;1.00;;;;;;5058613;28;20225;-79
2023/03/16 08:10:48;;;;;;;8.65;2.70;;;3.80;1.00;;;;;;5059960;28;20228;-80
2023/03/16 08:13:15;;;;;;;8.52;3.10;;;3.90;1.00;;;;;;5059779;28;20215;-80
2023/03/16 08:15:46;;;;;;;5.93;4.05;;;3.90;1.00;;;;;;5057972;28;20203;-79
2023/03/16 08:18:13;;;;;;;4.95;3.85;;;4.00;1.00;;;;;;5056036;28;20222;-78
2023/03/16 08:20:40;;;;;;;4.53;3.38;;;4.10;1.00;;;;;;5056948;28;20226;-79
2023/03/16 08:23:07;;;;;;;14.38;5.28;;;4.10;30.00;;;;;;5056951;28;20211;-79
2023/03/16 08:25:34;;;;;;;29.52;4.88;;;4.20;1.00;;;;;;5056166;28;20199;-78
2023/03/16 08:28:01;;;;;;;7.45;3.10;;;4.50;1.00;;;;;;5057613;28;20289;-79
2023/03/16 08:30:29;;;;;;;18.40;3.95;;;4.70;1.00;;;;;;5057684;28;20237;-81
2023/03/16 08:32:57;;;;;;;14.00;3.47;;;4.80;1.00;;;;;;5057069;28;20249;-79
2023/03/16 08:35:24;;;;;;;11.35;4.07;;;5.00;1.00;;;;;;5055785;28;20712;-78
2023/03/16 08:37:51;;;;;;;5.93;2.47;;;4.90;1.00;;;;;;5055975;28;20621;-79
2023/03/16 08:40:29;;;;;;;8.10;2.65;;;7.00;1.00;;;;;;5084866;22;20380;-84
2023/03/16 08:42:56;;;;;;;4.15;2.67;;;5.30;1.00;;;;;;5079006;28;20241;-83
2023/03/16 08:45:23;;;;;;;5.55;1.80;;;6.60;1.00;;;;;;5078403;28;20206;-83
2023/03/16 08:47:50;;;;;;;7.93;3.55;;;5.20;1.00;;;;;;5078044;28;20203;-85
2023/03/16 08:50:19;;;;;;;3.78;2.63;;;5.10;1.00;;;;;;5078529;28;20223;-83
2023/03/16 08:52:47;;;;;;;4.40;2.53;;;5.20;1.00;;;;;;5078013;28;20243;-84
2023/03/16 08:55:15;;;;;;;13.38;3.85;;;5.40;1.00;;;;;;5077399;28;20199;-84
2023/03/16 08:57:44;;;;;;;13.05;3.20;;;5.60;1.00;;;;;;5077444;28;20203;-83
2023/03/16 09:00:13;;;;;;;5.13;2.70;;;5.60;1.00;;;;;;5077429;28;20253;-85
2023/03/16 09:02:41;;;;;;;7.90;3.17;;;5.60;1.00;;;;;;5078050;28;20211;-84
2023/03/16 09:05:09;;;;;;;5.45;2.80;;;5.70;1.00;;;;;;5077624;28;20237;-86
2023/03/16 09:07:39;;;;;;;6.40;2.40;;;5.50;1.00;;;;;;5077546;28;20198;-85
2023/03/16 09:10:07;;;;;;;7.43;2.25;;;5.50;1.00;;;;;;5077438;28;20659;-85
2023/03/16 09:12:36;;;;;;;7.88;2.78;;;5.50;1.00;;;;;;5077695;28;20198;-85
2023/03/16 09:15:03;;;;;;;2.53;2.33;;;5.70;1.00;;;;;;5078019;28;20596;-85
2023/03/16 09:17:30;;;;;;;7.25;2.20;;;5.70;1.00;;;;;;5078000;28;20253;-85
2023/03/16 09:20:01;;;;;;;4.03;2.35;;;6.20;1.00;;;;;;5077227;28;20215;-85
2023/03/16 09:22:29;;;;;;;5.63;2.50;;;5.80;1.00;;;;;;5079105;28;20607;-85
2023/03/16 09:24:57;;;;;;;2.97;2.00;;;7.90;1.00;;;;;;5078051;28;20603;-86
2023/03/16 09:27:24;;;;;;;7.28;3.05;;;6.00;1.00;;;;;;5077561;28;20212;-84
2023/03/16 09:29:55;;;;;;;5.40;2.30;;;5.80;1.00;;;;;;5086393;28;20246;-83
2023/03/16 09:32:22;;;;;;;8.15;2.15;;;6.10;1.00;;;;;;5090371;28;20736;-83
2023/03/16 09:34:49;;;;;;;6.25;2.00;;;5.90;1.00;;;;;;5088090;28;20188;-86
2023/03/16 09:37:16;;;;;;;8.68;2.28;;;6.00;1.00;;;;;;5077045;28;20204;-85
2023/03/16 09:39:44;;;;;;;8.50;3.88;;;6.30;1.00;;;;;;5076583;28;20705;-85
2023/03/16 09:42:19;;;;;;;18.45;3.22;;;6.20;1.00;;;;;;5077412;28;20208;-85
2023/03/16 09:44:57;;;;;;;4.38;3.20;;;6.30;1.00;;;;;;5077687;28;20190;-85
2023/03/16 09:47:29;;;;;;;10.32;2.70;;;6.50;1.00;;;;;;5078761;28;20547;-84
2023/03/16 09:49:58;;;;;;;5.25;2.85;;;6.10;1.00;;;;;;5078210;28;20290;-85
2023/03/16 09:52:33;;;;;;;7.03;3.00;;;6.30;1.00;;;;;;5084884;28;20200;-82
2023/03/16 10:04:54;;;;;;;4.90;1.90;;;6.70;1.00;;;;;;5079278;28;20187;-85
2023/03/16 10:07:32;;;;;;;3.90;1.92;;;6.70;1.00;;;;;;5077426;28;20211;-84
2023/03/16 10:10:04;;;;;;;4.90;1.50;;;6.50;1.00;;;;;;5078921;28;20248;-85
2023/03/16 10:12:34;;;;;;;4.57;1.95;;;6.70;1.00;;;;;;5083873;28;20211;-83
2023/03/16 10:15:08;;;;;;;2.22;2.03;;;6.80;1.00;;;;;;5085117;28;20260;-83
2023/03/16 10:17:44;;;;;;;3.67;2.30;;;7.10;1.00;;;;;;5088480;28;20191;-82
2023/03/16 10:20:16;;;;;;;7.15;2.75;;;6.80;1.00;;;;;;5094454;28;20218;-82
2023/03/16 10:22:45;;;;;;;2.83;1.70;;;7.00;1.00;;;;;;5083155;28;20275;-84
2023/03/16 10:25:20;;;;;;;3.15;1.60;;;6.90;1.00;;;;;;5079998;28;20249;-85
2023/03/16 10:27:47;;;;;;;4.90;2.30;;;6.90;1.00;;;;;;5079157;28;20191;-83
2023/03/16 10:30:21;;;;;;;5.93;2.28;;;6.90;1.00;;;;;;5079665;28;20250;-84
2023/03/16 10:32:49;;;;;;;2.78;2.65;;;7.20;1.00;;;;;;5077425;28;20270;-83
2023/03/16 10:35:25;;;;;;;4.72;1.92;;;7.10;1.00;;;;;;5076769;28;20217;-84
2023/03/16 10:37:51;;;;;;;2.35;2.08;;;7.20;1.00;;;;;;5075802;28;20259;-82
2023/03/16 10:40:19;;;;;;;2.15;1.60;;;7.20;1.00;;;;;;5076067;28;20601;-83
2023/03/16 10:42:46;;;;;;;3.75;1.88;;;7.20;1.00;;;;;;5076736;28;20184;-83
2023/03/16 10:45:25;;;;;;;29.23;4.40;;;7.30;1.00;;;;;;5077881;28;20200;-82
2023/03/16 10:47:52;;;;;;;4.30;2.28;;;7.30;1.00;;;;;;5079581;28;20609;-83
2023/03/16 10:50:24;;;;;;;6.28;2.30;;;7.30;1.00;;;;;;5082157;28;20298;-82
2023/03/16 10:52:52;;;;;;;5.60;2.60;;;7.30;1.00;;;;;;5083077;28;20273;-84
2023/03/16 10:55:24;;;;;;;3.37;2.23;;;7.50;1.00;;;;;;5090354;28;20219;-83
2023/03/16 10:57:53;;;;;;;4.07;3.65;;;7.50;1.00;;;;;;5081296;28;20390;-82
2023/03/16 11:00:27;;;;;;;6.40;4.75;;;7.40;1.00;;;;;;5080081;28;20224;-84
2023/03/16 11:02:56;;;;;;;42.97;7.90;;;7.70;1.00;;;;;;5080090;28;20257;-84
2023/03/16 11:05:29;;;;;;;4.90;2.25;;;7.60;1.00;;;;;;5079500;28;20460;-83
2023/03/16 11:08:01;;;;;;;7.13;2.92;;;7.70;1.00;;;;;;5079652;28;20616;-83
2023/03/16 11:10:33;;;;;;;1.75;1.65;;;7.60;1.00;;;;;;5080148;28;20222;-83
2023/03/16 11:13:11;;;;;;;12.40;6.55;;;7.60;1.00;;;;;;5080947;28;20248;-83
2023/03/16 11:15:51;;;;;;;27.48;17.02;;;7.70;1.00;;;;;;5080255;28;20188;-84
2023/03/16 11:18:31;;;;;;;6.87;4.60;;;7.60;1.00;;;;;;5082450;28;20195;-85
2023/03/16 11:21:05;;;;;;;3.83;2.13;;;7.70;1.00;;;;;;5088277;28;20472;-82
2023/03/16 11:23:34;;;;;;;6.10;2.63;;;7.70;1.00;;;;;;5093099;28;20455;-81
2023/03/16 11:26:04;;;;;;;3.50;2.40;;;8.00;1.00;;;;;;5091941;28;20203;-83
2023/03/16 11:28:37;;;;;;;5.00;2.10;;;8.10;1.00;;;;;;5080087;28;20444;-83
2023/03/16 11:31:18;;;;;;;4.23;2.10;;;8.00;99.90;;;;;;5079048;28;20469;-82
2023/03/16 11:33:47;;;;;;;3.10;1.70;;;7.90;99.90;;;;;;5079071;28;20893;-84
2023/03/16 11:36:28;;;;;;;4.63;2.50;;;8.20;1.00;;;;;;5088066;28;20446;-82
2023/03/16 11:39:04;;;;;;;4.67;3.37;;;7.90;99.90;;;;;;5080360;28;20432;-83
2023/03/16 11:41:42;;;;;;;4.43;3.25;;;8.00;99.90;;;;;;5078192;28;20493;-84
2023/03/16 11:44:18;;;;;;;10.47;2.30;;;8.10;99.90;;;;;;5079611;28;20191;-82
2023/03/16 11:46:57;;;;;;;10.63;2.87;;;8.10;99.90;;;;;;5083425;28;20434;-81
2023/03/16 11:49:50;;;;;;;4.40;2.70;;;8.20;99.90;;;;;;5091848;28;20450;-81
2023/03/16 11:52:25;;;;;;;2.33;1.40;;;8.30;99.90;;;;;;5081388;28;20446;-85
2023/03/16 11:55:01;;;;;;;2.70;1.77;;;8.20;99.90;;;;;;5086539;28;20488;-83
2023/03/16 11:57:43;;;;;;;2.03;1.80;;;8.20;99.90;;;;;;5082589;28;20517;-82
2023/03/16 12:00:27;;;;;;;2.80;1.90;;;8.30;99.90;;;;;;5087748;28;20488;-84
2023/03/16 12:03:35;;;;;;;5.90;2.20;;;8.70;1.00;;;;;;5081323;28;20473;-83
2023/03/16 12:06:07;;;;;;;2.10;1.70;;;8.60;99.90;;;;;;5083632;28;20442;-86
2023/03/16 12:08:48;;;;;;;3.77;2.03;;;8.60;99.90;;;;;;5081059;28;20407;-85
2023/03/16 12:11:23;;;;;;;5.43;2.33;;;8.60;1.00;;;;;;5078749;28;20470;-84
2023/03/16 12:14:05;;;;;;;11.13;7.93;;;8.70;99.90;;;;;;5080934;28;20452;-84
2023/03/16 12:16:37;;;;;;;3.10;2.13;;;8.70;99.90;;;;;;5084046;28;20438;-84
2023/03/16 12:19:11;;;;;;;3.70;2.03;;;8.60;99.90;;;;;;5085007;28;20458;-85
2023/03/16 12:21:41;;;;;;;4.80;2.80;;;8.60;99.90;;;;;;5080273;28;20493;-84
2023/03/16 12:24:14;;;;;;;3.07;2.03;;;8.70;99.90;;;;;;5079723;28;20439;-83
2023/03/16 12:26:43;;;;;;;12.17;5.40;;;8.70;99.90;;;;;;5080004;28;20442;-84
2023/03/16 12:29:25;;;;;;;2.77;1.93;;;8.70;99.90;;;;;;5079626;28;20546;-84
2023/03/16 12:31:58;;;;;;;2.03;1.60;;;8.80;99.90;;;;;;5081122;28;20440;-84
2023/03/16 12:34:32;;;;;;;4.90;3.13;;;8.70;99.90;;;;;;5081430;28;20420;-82
2023/03/16 12:37:14;;;;;;;3.40;1.93;;;8.70;99.90;;;;;;5079618;28;20791;-84
2023/03/16 12:40:16;;;;;;;5.03;2.90;;;8.80;99.90;;;;;;5080462;28;20888;-83
2023/03/16 12:42:56;;;;;;;7.70;2.63;;;9.00;99.90;;;;;;5071030;28;20981;-83
2023/03/16 12:45:32;;;;;;;6.07;2.50;;;8.90;99.90;;;;;;5077333;28;20487;-83
2023/03/16 12:48:09;;;;;;;3.77;1.67;;;8.90;99.90;;;;;;5077952;28;20433;-83
2023/03/16 12:50:49;;;;;;;3.30;1.87;;;8.90;99.90;;;;;;5078520;28;20499;-84
2023/03/16 12:53:27;;;;;;;9.90;6.40;;;8.80;99.90;;;;;;5078373;28;20430;-82
2023/03/16 12:55:55;;;;;;;8.43;5.20;;;8.90;99.90;;;;;;5077249;28;20462;-83
2023/03/16 12:58:24;;;;;;;10.53;8.10;;;8.80;99.90;;;;;;5077196;28;20519;-82
2023/03/16 13:00:57;;;;;;;2.60;2.10;;;8.90;99.90;;;;;;5077196;28;20521;-82
2023/03/16 13:03:26;;;;;;;5.27;4.50;;;9.00;99.90;;;;;;5078041;28;20487;-82
2023/03/16 13:05:57;;;;;;;5.17;2.30;;;8.90;99.90;;;;;;5078256;28;20537;-82
2023/03/16 13:08:26;;;;;;;4.17;3.10;;;8.70;99.90;;;;;;5077605;28;20528;-83
2023/03/16 13:11:04;;;;;;;2.80;1.50;;;8.70;99.90;;;;;;5078344;28;20459;-84
2023/03/16 13:13:36;;;;;;;5.80;4.47;;;8.90;99.90;;;;;;5078613;28;20832;-84
2023/03/16 13:16:08;;;;;;;2.83;2.20;;;8.80;1.00;;;;;;5078284;28;20413;-85
2023/03/16 13:18:40;;;;;;;2.93;2.60;;;8.90;1.00;;;;;;5079365;28;20451;-86
2023/03/16 13:21:24;;;;;;;2.00;1.80;;;9.00;99.90;;;;;;5080056;28;20465;-83
2023/03/16 13:23:56;;;;;;;8.13;4.03;;;8.90;99.90;;;;;;5098771;28;20428;-85